Atalanti — 5BYY2 — position and weather

sailwx.info

Track history (hours):
 
Tides and Currents Weather Stations Pressure Air Temp Water Temp Dewpoint Dewpoint Depression Visibility Wind Speed Wind Dir Waves Ship Positions

Atalanti

Last reported at 2015-Jul-16 00:13 UTC. Time now 2015-Jul-29 13:29 UTC.
Position N 38°09' E 024°08'.
Warning: this ship's position is 13 days out of date.

Length 97 m; draft 3 m.

Type: Other ship. MMSI: 212279000.

Date/timePositionNaut miles runAvg speedWind from/ knotsBaromVisibWave heightAir tempDewpointWater temp
2015-Jul-16 00:13N 38°09' E 024°08'5 7.4
2015-Jul-15 23:33N 38°04' E 024°08'28 6.7
2015-Jul-15 19:24N 37°37' E 023°57'7 8.1
2015-Jul-15 18:33N 37°38' E 023°49'7 7.2
2015-Jul-15 17:33N 37°41' E 023°40'8 7.8
2015-Jul-15 16:33N 37°48' E 023°37'8 7.9
2015-Jul-15 15:33N 37°56' E 023°36'6 1.9
2015-Jul-15 12:15N 38°02' E 023°33'0 0.0
2015-Jul-15 05:33N 38°02' E 023°33'0 0.0
2015-Jul-15 04:33N 38°02' E 023°33'0 0.0
2015-Jul-15 03:33N 38°02' E 023°33'0 0.0
2015-Jul-15 02:30N 38°02' E 023°33'0 0.0
2015-Jul-15 01:06N 38°02' E 023°33'0 0.0
2015-Jul-15 00:33N 38°02' E 023°33'0 0.0
2015-Jul-14 23:33N 38°02' E 023°33'0 0.0
2015-Jul-14 22:24N 38°02' E 023°33'0 0.0
2015-Jul-14 21:24N 38°02' E 023°33'0 0.0
2015-Jul-14 20:33N 38°02' E 023°33'0 0.0
2015-Jul-14 19:33N 38°02' E 023°33'0 0.0
2015-Jul-14 18:33N 38°02' E 023°33'0 0.0
2015-Jul-14 17:33N 38°02' E 023°33'0 0.0
2015-Jul-14 16:30N 38°02' E 023°33'0 0.0
2015-Jul-14 15:33N 38°02' E 023°33'0 0.0
2015-Jul-14 14:33N 38°02' E 023°33'0 0.0
2015-Jul-14 13:30N 38°02' E 023°33'0 0.0
2015-Jul-14 06:21N 38°02' E 023°33'0 0.0
2015-Jul-14 05:33N 38°02' E 023°33'0 0.0
2015-Jul-14 04:33N 38°02' E 023°33'0 0.0
2015-Jul-14 03:30N 38°02' E 023°33'0 0.0
2015-Jul-14 02:33N 38°02' E 023°33'0 0.0
2015-Jul-14 01:33N 38°02' E 023°33'0 0.0
2015-Jul-14 00:33N 38°02' E 023°33'0 0.0
2015-Jul-13 23:33N 38°02' E 023°33'0 0.0
2015-Jul-13 22:30N 38°02' E 023°33'0 0.0
2015-Jul-13 21:30N 38°02' E 023°33'0 0.0
2015-Jul-13 20:30N 38°02' E 023°33'0 0.0
2015-Jul-13 19:33N 38°02' E 023°33'0 0.0
2015-Jul-13 18:27N 38°02' E 023°33'0 0.0
2015-Jul-13 17:33N 38°02' E 023°33'0 0.0
2015-Jul-13 16:33N 38°02' E 023°33'0 0.0
2015-Jul-13 15:33N 38°02' E 023°33'0 0.0
2015-Jul-13 14:33N 38°02' E 023°33'0 0.0
2015-Jul-13 13:33N 38°02' E 023°33'0 0.0
2015-Jul-13 12:33N 38°02' E 023°33'0 0.0
2015-Jul-13 11:27N 38°02' E 023°33'0 0.0
2015-Jul-13 10:30N 38°02' E 023°33'0 0.0
2015-Jul-13 09:33N 38°02' E 023°33'0 0.0
2015-Jul-13 08:33N 38°02' E 023°33'0 0.0
2015-Jul-13 07:33N 38°02' E 023°33'0 0.0
2015-Jul-13 06:33N 38°02' E 023°33'0 0.0
2015-Jul-13 05:33N 38°02' E 023°33'0 0.0
2015-Jul-13 04:33N 38°02' E 023°33'0 0.0
2015-Jul-13 03:33N 38°02' E 023°33'0 0.0
2015-Jul-13 02:27N 38°02' E 023°33'0 0.0
2015-Jul-13 01:33N 38°02' E 023°33'0 0.0
2015-Jul-13 00:33N 38°02' E 023°33'0 0.0
2015-Jul-12 23:33N 38°02' E 023°33'0 0.0
2015-Jul-12 22:33N 38°02' E 023°33'0 0.0
2015-Jul-12 21:30N 38°02' E 023°33'0 0.0
2015-Jul-12 20:33N 38°02' E 023°33'0 0.0
2015-Jul-12 19:33N 38°02' E 023°33'0 0.0
2015-Jul-12 18:33N 38°02' E 023°33'0 0.0
2015-Jul-12 17:33N 38°02' E 023°33'0 0.0
2015-Jul-12 16:33N 38°02' E 023°33'0 0.0
2015-Jul-12 15:33N 38°02' E 023°33'0 0.0
2015-Jul-12 14:33N 38°02' E 023°33'0 0.0
2015-Jul-12 13:27N 38°02' E 023°33'0 0.0
2015-Jul-12 12:33N 38°02' E 023°33'0 0.0
2015-Jul-12 11:33N 38°02' E 023°33'0 0.0
2015-Jul-12 10:33N 38°02' E 023°33'0 0.0
2015-Jul-12 09:33N 38°02' E 023°33'0 0.0
2015-Jul-12 08:33N 38°02' E 023°33'0 0.0
2015-Jul-12 07:33N 38°02' E 023°33'0 0.0
2015-Jul-12 06:33N 38°02' E 023°33'0 0.0
2015-Jul-12 05:33N 38°02' E 023°33'0 0.0
2015-Jul-12 04:33N 38°02' E 023°33'0 0.0
2015-Jul-12 03:33N 38°02' E 023°33'0 0.0
2015-Jul-12 02:33N 38°02' E 023°33'0 0.0
2015-Jul-12 01:33N 38°02' E 023°33'0 0.0
2015-Jul-12 00:33N 38°02' E 023°33'0 0.0
2015-Jul-11 23:27N 38°02' E 023°33'0 0.0
2015-Jul-11 22:33N 38°02' E 023°33'0 0.0
2015-Jul-11 21:33N 38°02' E 023°33'0 0.0
2015-Jul-11 20:30N 38°02' E 023°33'0 0.0
2015-Jul-11 19:30N 38°02' E 023°33'0 0.0
2015-Jul-11 18:27N 38°02' E 023°33'0 0.0
2015-Jul-11 17:33N 38°02' E 023°33'0 0.0
2015-Jul-11 16:33N 38°02' E 023°33'0 0.0
2015-Jul-11 15:30N 38°02' E 023°33'0 0.0
2015-Jul-11 14:30N 38°02' E 023°33'0 0.0
2015-Jul-11 13:33N 38°02' E 023°33'0 0.0
2015-Jul-11 12:33N 38°02' E 023°33'0 0.0
2015-Jul-11 11:33N 38°02' E 023°33'0 0.0
2015-Jul-11 10:33N 38°02' E 023°33'0 0.0
2015-Jul-11 09:30N 38°02' E 023°33'0 0.0
2015-Jul-11 08:30N 38°02' E 023°33'0 0.0
2015-Jul-11 07:21N 38°02' E 023°33'0 0.0
2015-Jul-11 06:09N 38°02' E 023°33'0 0.0
2015-Jul-11 05:30N 38°02' E 023°33'0 0.0
2015-Jul-11 04:30N 38°02' E 023°33'0 0.0
2015-Jul-11 03:33N 38°02' E 023°33'0 0.0
2015-Jul-11 02:33N 38°02' E 023°33'0 0.0
2015-Jul-11 01:33N 38°02' E 023°33'0 0.0
2015-Jul-11 00:33N 38°02' E 023°33'0 0.0
2015-Jul-10 23:27N 38°02' E 023°33'0 0.0
2015-Jul-10 22:33N 38°02' E 023°33'0 0.0
2015-Jul-10 21:27N 38°02' E 023°33'0 0.0
2015-Jul-10 20:24N 38°02' E 023°33'0 0.0
2015-Jul-10 19:33N 38°02' E 023°33'0 0.0
2015-Jul-10 18:33N 38°02' E 023°33'0 0.0
2015-Jul-10 17:33N 38°02' E 023°33'0 0.0
2015-Jul-10 16:33N 38°02' E 023°33'0 0.0
2015-Jul-10 15:33N 38°02' E 023°33'0 0.0
2015-Jul-10 14:33N 38°02' E 023°33'0 0.0
2015-Jul-10 13:15N 38°02' E 023°33'0 0.0
2015-Jul-10 12:30N 38°02' E 023°33'0 0.0
2015-Jul-10 11:30N 38°02' E 023°33'0 0.0
2015-Jul-10 10:33N 38°02' E 023°33'0 0.0
2015-Jul-10 09:33N 38°02' E 023°33'0 0.0
2015-Jul-10 08:30N 38°02' E 023°33'0 0.0
2015-Jul-10 07:33N 38°02' E 023°33'0 0.0
2015-Jul-10 06:30N 38°02' E 023°33'0 0.0
2015-Jul-10 05:33N 38°02' E 023°33'0 0.0
2015-Jul-10 04:33N 38°02' E 023°33'0 0.0
2015-Jul-10 02:33N 38°02' E 023°33'0 0.0
2015-Jul-10 01:24N 38°02' E 023°33'0 0.0
2015-Jul-10 00:33N 38°02' E 023°33'0 0.0
2015-Jul-09 23:27N 38°02' E 023°33'0 0.0
2015-Jul-09 22:33N 38°02' E 023°33'0 0.0
2015-Jul-09 21:33N 38°02' E 023°33'0 0.0
2015-Jul-09 20:33N 38°02' E 023°33'0 0.0
2015-Jul-09 19:33N 38°02' E 023°33'0 0.0
2015-Jul-09 18:33N 38°02' E 023°33'0 0.0
2015-Jul-09 17:18N 38°02' E 023°33'0 0.0
2015-Jul-09 16:15N 38°02' E 023°33'0 0.0
2015-Jul-09 15:33N 38°02' E 023°33'0 0.0
2015-Jul-09 14:33N 38°02' E 023°33'0 0.0
2015-Jul-09 13:27N 38°02' E 023°33'0 0.0
2015-Jul-09 12:33N 38°02' E 023°33'0 0.0
2015-Jul-09 11:30N 38°02' E 023°33'0 0.0
2015-Jul-09 10:33N 38°02' E 023°33'0 0.0
2015-Jul-09 09:33N 38°02' E 023°33'0 0.0
2015-Jul-09 08:33N 38°02' E 023°33'0 0.0
2015-Jul-09 07:33N 38°02' E 023°33'0 0.0
2015-Jul-09 06:33N 38°02' E 023°33'0 0.0
2015-Jul-09 05:33N 38°02' E 023°33'0 0.0
2015-Jul-09 04:33N 38°02' E 023°33'0 0.0
2015-Jul-09 03:33N 38°02' E 023°33'0 0.0
2015-Jul-09 02:33N 38°02' E 023°33'0 0.0
2015-Jul-09 01:33N 38°02' E 023°33'0 0.0
2015-Jul-09 00:33N 38°02' E 023°33'0 0.0
2015-Jul-08 23:33N 38°02' E 023°33'0 0.0
2015-Jul-08 22:21N 38°02' E 023°33'0 0.0
2015-Jul-08 21:33N 38°02' E 023°33'0 0.0
2015-Jul-08 20:33N 38°02' E 023°33'0 0.0
2015-Jul-08 19:27N 38°02' E 023°33'0 0.0
2015-Jul-08 18:33N 38°02' E 023°33'0 0.0
2015-Jul-08 17:33N 38°02' E 023°33'0 0.0
2015-Jul-08 16:33N 38°02' E 023°33'0 0.0
2015-Jul-08 15:27N 38°02' E 023°33'0 0.0
2015-Jul-08 14:30N 38°02' E 023°33'0 0.0
2015-Jul-08 13:33N 38°02' E 023°33'0 0.0
2015-Jul-08 12:33N 38°02' E 023°33'0 0.0
2015-Jul-08 11:30N 38°02' E 023°33'0 0.0
2015-Jul-08 10:33N 38°02' E 023°33'0 0.0
2015-Jul-08 09:33N 38°02' E 023°33'0 0.0
2015-Jul-08 08:33N 38°02' E 023°33'0 0.0
2015-Jul-08 07:33N 38°02' E 023°33'0 0.0
2015-Jul-08 06:33N 38°02' E 023°33'0 0.0
2015-Jul-08 05:33N 38°02' E 023°33'0 0.0
2015-Jul-08 04:30N 38°02' E 023°33'0 0.0
2015-Jul-08 03:33N 38°02' E 023°33'0 0.0
2015-Jul-08 02:30N 38°02' E 023°33'0 0.0
2015-Jul-08 01:21N 38°02' E 023°33'0 0.0
2015-Jul-08 00:33N 38°02' E 023°33'0 0.0
2015-Jul-07 23:24N 38°02' E 023°33'0 0.0
2015-Jul-07 22:33N 38°02' E 023°33'0 0.0
2015-Jul-07 21:30N 38°02' E 023°33'0 0.0
2015-Jul-07 20:33N 38°02' E 023°33'0 0.0
2015-Jul-07 19:33N 38°02' E 023°33'0 0.0
2015-Jul-07 18:33N 38°02' E 023°33'0 0.0
2015-Jul-07 17:33N 38°02' E 023°33'0 0.0
2015-Jul-07 16:24N 38°02' E 023°33'0 0.0
2015-Jul-07 15:33N 38°02' E 023°33'0 0.0
2015-Jul-07 14:33N 38°02' E 023°33'0 0.0
2015-Jul-07 13:33N 38°02' E 023°33'0 0.0
2015-Jul-07 12:27N 38°02' E 023°33'0 0.0
2015-Jul-07 11:33N 38°02' E 023°33'0 0.0
2015-Jul-07 10:30N 38°02' E 023°33'0 0.0
2015-Jul-07 09:33N 38°02' E 023°33'0 0.0
2015-Jul-07 08:33N 38°02' E 023°33'0 0.0
2015-Jul-07 07:33N 38°02' E 023°33'0 0.0
2015-Jul-07 06:21N 38°02' E 023°33'0 0.0
2015-Jul-07 05:33N 38°02' E 023°33'0 0.0
2015-Jul-07 04:27N 38°02' E 023°33'0 0.0
2015-Jul-07 03:33N 38°02' E 023°33'0 0.0
2015-Jul-07 02:33N 38°02' E 023°33'0 0.0
2015-Jul-07 01:24N 38°02' E 023°33'0 0.0
2015-Jul-07 00:30N 38°02' E 023°33'0 0.0
2015-Jul-06 23:33N 38°02' E 023°33'0 0.0
2015-Jul-06 22:33N 38°02' E 023°33'0 0.0
2015-Jul-06 21:30N 38°02' E 023°33'0 0.0
2015-Jul-06 20:30N 38°02' E 023°33'0 0.0
2015-Jul-06 19:33N 38°02' E 023°33'0 0.0
2015-Jul-06 18:33N 38°02' E 023°33'0 0.0
2015-Jul-06 17:33N 38°02' E 023°33'0 0.0
2015-Jul-06 16:24N 38°02' E 023°33'0 0.0
2015-Jul-06 15:33N 38°02' E 023°33'0 0.0
2015-Jul-06 14:33N 38°02' E 023°33'0 0.0
2015-Jul-06 13:33N 38°02' E 023°33'0 0.0
2015-Jul-06 12:33N 38°02' E 023°33'0 0.0
2015-Jul-06 11:33N 38°02' E 023°33'0 0.0
2015-Jul-06 10:30N 38°02' E 023°33'0 0.0
2015-Jul-06 09:33N 38°02' E 023°33'0 0.0
2015-Jul-06 08:33N 38°02' E 023°33'0 0.0
2015-Jul-06 07:33N 38°02' E 023°33'0 0.0
2015-Jul-06 06:33N 38°02' E 023°33'0 0.0
2015-Jul-06 05:33N 38°02' E 023°33'0 0.0
2015-Jul-06 04:33N 38°02' E 023°33'0 0.0
2015-Jul-06 03:33N 38°02' E 023°33'0 0.0
2015-Jul-06 02:33N 38°02' E 023°33'0 0.0
2015-Jul-06 01:33N 38°02' E 023°33'0 0.0
2015-Jul-06 00:33N 38°02' E 023°33'  
Track history (hours):
 
Tides and Currents Weather Stations Pressure Air Temp Water Temp Dewpoint Dewpoint Depression Visibility Wind Speed Wind Dir Waves Ship Positions

Atalanti

Last reported at 2015-Jul-16 00:13 UTC. Time now 2015-Jul-29 13:29 UTC.
Position N 38°09' E 024°08'.
Warning: this ship's position is 13 days out of date.

Length 97 m; draft 3 m.

Type: Other ship. MMSI: 212279000.

Date/timePositionNaut miles runAvg speedWind from/ knotsBaromVisibWave heightAir tempDewpointWater temp
2015-Jul-16 00:13N 38°09' E 024°08'5 7.4
2015-Jul-15 23:33N 38°04' E 024°08'28 6.7
2015-Jul-15 19:24N 37°37' E 023°57'7 8.1
2015-Jul-15 18:33N 37°38' E 023°49'7 7.2
2015-Jul-15 17:33N 37°41' E 023°40'8 7.8
2015-Jul-15 16:33N 37°48' E 023°37'8 7.9
2015-Jul-15 15:33N 37°56' E 023°36'6 1.9
2015-Jul-15 12:15N 38°02' E 023°33'0 0.0
2015-Jul-15 05:33N 38°02' E 023°33'0 0.0
2015-Jul-15 04:33N 38°02' E 023°33'0 0.0
2015-Jul-15 03:33N 38°02' E 023°33'0 0.0
2015-Jul-15 02:30N 38°02' E 023°33'0 0.0
2015-Jul-15 01:06N 38°02' E 023°33'0 0.0
2015-Jul-15 00:33N 38°02' E 023°33'0 0.0
2015-Jul-14 23:33N 38°02' E 023°33'0 0.0
2015-Jul-14 22:24N 38°02' E 023°33'0 0.0
2015-Jul-14 21:24N 38°02' E 023°33'0 0.0
2015-Jul-14 20:33N 38°02' E 023°33'0 0.0
2015-Jul-14 19:33N 38°02' E 023°33'0 0.0
2015-Jul-14 18:33N 38°02' E 023°33'0 0.0
2015-Jul-14 17:33N 38°02' E 023°33'0 0.0
2015-Jul-14 16:30N 38°02' E 023°33'0 0.0
2015-Jul-14 15:33N 38°02' E 023°33'0 0.0
2015-Jul-14 14:33N 38°02' E 023°33'0 0.0
2015-Jul-14 13:30N 38°02' E 023°33'0 0.0
2015-Jul-14 06:21N 38°02' E 023°33'0 0.0
2015-Jul-14 05:33N 38°02' E 023°33'0 0.0
2015-Jul-14 04:33N 38°02' E 023°33'0 0.0
2015-Jul-14 03:30N 38°02' E 023°33'0 0.0
2015-Jul-14 02:33N 38°02' E 023°33'0 0.0
2015-Jul-14 01:33N 38°02' E 023°33'0 0.0
2015-Jul-14 00:33N 38°02' E 023°33'0 0.0
2015-Jul-13 23:33N 38°02' E 023°33'0 0.0
2015-Jul-13 22:30N 38°02' E 023°33'0 0.0
2015-Jul-13 21:30N 38°02' E 023°33'0 0.0
2015-Jul-13 20:30N 38°02' E 023°33'0 0.0
2015-Jul-13 19:33N 38°02' E 023°33'0 0.0
2015-Jul-13 18:27N 38°02' E 023°33'0 0.0
2015-Jul-13 17:33N 38°02' E 023°33'0 0.0
2015-Jul-13 16:33N 38°02' E 023°33'0 0.0
2015-Jul-13 15:33N 38°02' E 023°33'0 0.0
2015-Jul-13 14:33N 38°02' E 023°33'0 0.0
2015-Jul-13 13:33N 38°02' E 023°33'0 0.0
2015-Jul-13 12:33N 38°02' E 023°33'0 0.0
2015-Jul-13 11:27N 38°02' E 023°33'0 0.0
2015-Jul-13 10:30N 38°02' E 023°33'0 0.0
2015-Jul-13 09:33N 38°02' E 023°33'0 0.0
2015-Jul-13 08:33N 38°02' E 023°33'0 0.0
2015-Jul-13 07:33N 38°02' E 023°33'0 0.0
2015-Jul-13 06:33N 38°02' E 023°33'0 0.0
2015-Jul-13 05:33N 38°02' E 023°33'0 0.0
2015-Jul-13 04:33N 38°02' E 023°33'0 0.0
2015-Jul-13 03:33N 38°02' E 023°33'0 0.0
2015-Jul-13 02:27N 38°02' E 023°33'0 0.0
2015-Jul-13 01:33N 38°02' E 023°33'0 0.0
2015-Jul-13 00:33N 38°02' E 023°33'0 0.0
2015-Jul-12 23:33N 38°02' E 023°33'0 0.0
2015-Jul-12 22:33N 38°02' E 023°33'0 0.0
2015-Jul-12 21:30N 38°02' E 023°33'0 0.0
2015-Jul-12 20:33N 38°02' E 023°33'0 0.0
2015-Jul-12 19:33N 38°02' E 023°33'0 0.0
2015-Jul-12 18:33N 38°02' E 023°33'0 0.0
2015-Jul-12 17:33N 38°02' E 023°33'0 0.0
2015-Jul-12 16:33N 38°02' E 023°33'0 0.0
2015-Jul-12 15:33N 38°02' E 023°33'0 0.0
2015-Jul-12 14:33N 38°02' E 023°33'0 0.0
2015-Jul-12 13:27N 38°02' E 023°33'0 0.0
2015-Jul-12 12:33N 38°02' E 023°33'0 0.0
2015-Jul-12 11:33N 38°02' E 023°33'0 0.0
2015-Jul-12 10:33N 38°02' E 023°33'0 0.0
2015-Jul-12 09:33N 38°02' E 023°33'0 0.0
2015-Jul-12 08:33N 38°02' E 023°33'0 0.0
2015-Jul-12 07:33N 38°02' E 023°33'0 0.0
2015-Jul-12 06:33N 38°02' E 023°33'0 0.0
2015-Jul-12 05:33N 38°02' E 023°33'0 0.0
2015-Jul-12 04:33N 38°02' E 023°33'0 0.0
2015-Jul-12 03:33N 38°02' E 023°33'0 0.0
2015-Jul-12 02:33N 38°02' E 023°33'0 0.0
2015-Jul-12 01:33N 38°02' E 023°33'0 0.0
2015-Jul-12 00:33N 38°02' E 023°33'0 0.0
2015-Jul-11 23:27N 38°02' E 023°33'0 0.0
2015-Jul-11 22:33N 38°02' E 023°33'0 0.0
2015-Jul-11 21:33N 38°02' E 023°33'0 0.0
2015-Jul-11 20:30N 38°02' E 023°33'0 0.0
2015-Jul-11 19:30N 38°02' E 023°33'0 0.0
2015-Jul-11 18:27N 38°02' E 023°33'0 0.0
2015-Jul-11 17:33N 38°02' E 023°33'0 0.0
2015-Jul-11 16:33N 38°02' E 023°33'0 0.0
2015-Jul-11 15:30N 38°02' E 023°33'0 0.0
2015-Jul-11 14:30N 38°02' E 023°33'0 0.0
2015-Jul-11 13:33N 38°02' E 023°33'0 0.0
2015-Jul-11 12:33N 38°02' E 023°33'0 0.0
2015-Jul-11 11:33N 38°02' E 023°33'0 0.0
2015-Jul-11 10:33N 38°02' E 023°33'0 0.0
2015-Jul-11 09:30N 38°02' E 023°33'0 0.0
2015-Jul-11 08:30N 38°02' E 023°33'0 0.0
2015-Jul-11 07:21N 38°02' E 023°33'0 0.0
2015-Jul-11 06:09N 38°02' E 023°33'0 0.0
2015-Jul-11 05:30N 38°02' E 023°33'0 0.0
2015-Jul-11 04:30N 38°02' E 023°33'0 0.0
2015-Jul-11 03:33N 38°02' E 023°33'0 0.0
2015-Jul-11 02:33N 38°02' E 023°33'0 0.0
2015-Jul-11 01:33N 38°02' E 023°33'0 0.0
2015-Jul-11 00:33N 38°02' E 023°33'0 0.0
2015-Jul-10 23:27N 38°02' E 023°33'0 0.0
2015-Jul-10 22:33N 38°02' E 023°33'0 0.0
2015-Jul-10 21:27N 38°02' E 023°33'0 0.0
2015-Jul-10 20:24N 38°02' E 023°33'0 0.0
2015-Jul-10 19:33N 38°02' E 023°33'0 0.0
2015-Jul-10 18:33N 38°02' E 023°33'0 0.0
2015-Jul-10 17:33N 38°02' E 023°33'0 0.0
2015-Jul-10 16:33N 38°02' E 023°33'0 0.0
2015-Jul-10 15:33N 38°02' E 023°33'0 0.0
2015-Jul-10 14:33N 38°02' E 023°33'0 0.0
2015-Jul-10 13:15N 38°02' E 023°33'0 0.0
2015-Jul-10 12:30N 38°02' E 023°33'0 0.0
2015-Jul-10 11:30N 38°02' E 023°33'0 0.0
2015-Jul-10 10:33N 38°02' E 023°33'0 0.0
2015-Jul-10 09:33N 38°02' E 023°33'0 0.0
2015-Jul-10 08:30N 38°02' E 023°33'0 0.0
2015-Jul-10 07:33N 38°02' E 023°33'0 0.0
2015-Jul-10 06:30N 38°02' E 023°33'0 0.0
2015-Jul-10 05:33N 38°02' E 023°33'0 0.0
2015-Jul-10 04:33N 38°02' E 023°33'0 0.0
2015-Jul-10 02:33N 38°02' E 023°33'0 0.0
2015-Jul-10 01:24N 38°02' E 023°33'0 0.0
2015-Jul-10 00:33N 38°02' E 023°33'0 0.0
2015-Jul-09 23:27N 38°02' E 023°33'0 0.0
2015-Jul-09 22:33N 38°02' E 023°33'0 0.0
2015-Jul-09 21:33N 38°02' E 023°33'0 0.0
2015-Jul-09 20:33N 38°02' E 023°33'0 0.0
2015-Jul-09 19:33N 38°02' E 023°33'0 0.0
2015-Jul-09 18:33N 38°02' E 023°33'0 0.0
2015-Jul-09 17:18N 38°02' E 023°33'0 0.0
2015-Jul-09 16:15N 38°02' E 023°33'0 0.0
2015-Jul-09 15:33N 38°02' E 023°33'0 0.0
2015-Jul-09 14:33N 38°02' E 023°33'0 0.0
2015-Jul-09 13:27N 38°02' E 023°33'0 0.0
2015-Jul-09 12:33N 38°02' E 023°33'0 0.0
2015-Jul-09 11:30N 38°02' E 023°33'0 0.0
2015-Jul-09 10:33N 38°02' E 023°33'0 0.0
2015-Jul-09 09:33N 38°02' E 023°33'0 0.0
2015-Jul-09 08:33N 38°02' E 023°33'0 0.0
2015-Jul-09 07:33N 38°02' E 023°33'0 0.0
2015-Jul-09 06:33N 38°02' E 023°33'0 0.0
2015-Jul-09 05:33N 38°02' E 023°33'0 0.0
2015-Jul-09 04:33N 38°02' E 023°33'0 0.0
2015-Jul-09 03:33N 38°02' E 023°33'0 0.0
2015-Jul-09 02:33N 38°02' E 023°33'0 0.0
2015-Jul-09 01:33N 38°02' E 023°33'0 0.0
2015-Jul-09 00:33N 38°02' E 023°33'0 0.0
2015-Jul-08 23:33N 38°02' E 023°33'0 0.0
2015-Jul-08 22:21N 38°02' E 023°33'0 0.0
2015-Jul-08 21:33N 38°02' E 023°33'0 0.0
2015-Jul-08 20:33N 38°02' E 023°33'0 0.0
2015-Jul-08 19:27N 38°02' E 023°33'0 0.0
2015-Jul-08 18:33N 38°02' E 023°33'0 0.0
2015-Jul-08 17:33N 38°02' E 023°33'0 0.0
2015-Jul-08 16:33N 38°02' E 023°33'0 0.0
2015-Jul-08 15:27N 38°02' E 023°33'0 0.0
2015-Jul-08 14:30N 38°02' E 023°33'0 0.0
2015-Jul-08 13:33N 38°02' E 023°33'0 0.0
2015-Jul-08 12:33N 38°02' E 023°33'0 0.0
2015-Jul-08 11:30N 38°02' E 023°33'0 0.0
2015-Jul-08 10:33N 38°02' E 023°33'0 0.0
2015-Jul-08 09:33N 38°02' E 023°33'0 0.0
2015-Jul-08 08:33N 38°02' E 023°33'0 0.0
2015-Jul-08 07:33N 38°02' E 023°33'0 0.0
2015-Jul-08 06:33N 38°02' E 023°33'0 0.0
2015-Jul-08 05:33N 38°02' E 023°33'0 0.0
2015-Jul-08 04:30N 38°02' E 023°33'0 0.0
2015-Jul-08 03:33N 38°02' E 023°33'0 0.0
2015-Jul-08 02:30N 38°02' E 023°33'0 0.0
2015-Jul-08 01:21N 38°02' E 023°33'0 0.0
2015-Jul-08 00:33N 38°02' E 023°33'0 0.0
2015-Jul-07 23:24N 38°02' E 023°33'0 0.0
2015-Jul-07 22:33N 38°02' E 023°33'0 0.0
2015-Jul-07 21:30N 38°02' E 023°33'0 0.0
2015-Jul-07 20:33N 38°02' E 023°33'0 0.0
2015-Jul-07 19:33N 38°02' E 023°33'0 0.0
2015-Jul-07 18:33N 38°02' E 023°33'0 0.0
2015-Jul-07 17:33N 38°02' E 023°33'0 0.0
2015-Jul-07 16:24N 38°02' E 023°33'0 0.0
2015-Jul-07 15:33N 38°02' E 023°33'0 0.0
2015-Jul-07 14:33N 38°02' E 023°33'0 0.0
2015-Jul-07 13:33N 38°02' E 023°33'0 0.0
2015-Jul-07 12:27N 38°02' E 023°33'0 0.0
2015-Jul-07 11:33N 38°02' E 023°33'0 0.0
2015-Jul-07 10:30N 38°02' E 023°33'0 0.0
2015-Jul-07 09:33N 38°02' E 023°33'0 0.0
2015-Jul-07 08:33N 38°02' E 023°33'0 0.0
2015-Jul-07 07:33N 38°02' E 023°33'0 0.0
2015-Jul-07 06:21N 38°02' E 023°33'0 0.0
2015-Jul-07 05:33N 38°02' E 023°33'0 0.0
2015-Jul-07 04:27N 38°02' E 023°33'0 0.0
2015-Jul-07 03:33N 38°02' E 023°33'0 0.0
2015-Jul-07 02:33N 38°02' E 023°33'0 0.0
2015-Jul-07 01:24N 38°02' E 023°33'0 0.0
2015-Jul-07 00:30N 38°02' E 023°33'0 0.0
2015-Jul-06 23:33N 38°02' E 023°33'0 0.0
2015-Jul-06 22:33N 38°02' E 023°33'0 0.0
2015-Jul-06 21:30N 38°02' E 023°33'0 0.0
2015-Jul-06 20:30N 38°02' E 023°33'0 0.0
2015-Jul-06 19:33N 38°02' E 023°33'0 0.0
2015-Jul-06 18:33N 38°02' E 023°33'0 0.0
2015-Jul-06 17:33N 38°02' E 023°33'0 0.0
2015-Jul-06 16:24N 38°02' E 023°33'0 0.0
2015-Jul-06 15:33N 38°02' E 023°33'0 0.0
2015-Jul-06 14:33N 38°02' E 023°33'0 0.0
2015-Jul-06 13:33N 38°02' E 023°33'0 0.0
2015-Jul-06 12:33N 38°02' E 023°33'0 0.0
2015-Jul-06 11:33N 38°02' E 023°33'0 0.0
2015-Jul-06 10:30N 38°02' E 023°33'0 0.0
2015-Jul-06 09:33N 38°02' E 023°33'0 0.0
2015-Jul-06 08:33N 38°02' E 023°33'0 0.0
2015-Jul-06 07:33N 38°02' E 023°33'0 0.0
2015-Jul-06 06:33N 38°02' E 023°33'0 0.0
2015-Jul-06 05:33N 38°02' E 023°33'0 0.0
2015-Jul-06 04:33N 38°02' E 023°33'0 0.0
2015-Jul-06 03:33N 38°02' E 023°33'0 0.0
2015-Jul-06 02:33N 38°02' E 023°33'0 0.0
2015-Jul-06 01:33N 38°02' E 023°33'0 0.0
2015-Jul-06 00:33N 38°02' E 023°33'  

Dump ship's entire track history